Time;durP1;ratioP1;P1;durP2;ratioP2;P2;SDS_P1;SDS_P2;PMS_P1;PMS_P2;Temp;Humidity;BMP_temperature;BMP_pressure;BME280_temperature;BME280_humidity;BME280_pressure;Samples;Min_cycle;Max_cycle;Signal;HPM_P1;HPM_P2
2022/11/18 00:00:01;;;;;;;31.50;16.50;;;;;;;1.38;100.00;96644.93;1711742;83;21065;-77
2022/11/18 00:02:29;;;;;;;35.58;20.30;;;;;;;1.41;100.00;96639.07;1690914;82;21176;-81
2022/11/18 00:04:56;;;;;;;35.90;20.17;;;;;;;1.44;100.00;96640.42;1712061;83;21105;-81
2022/11/18 00:07:23;;;;;;;38.95;19.60;;;;;;;1.43;100.00;96640.14;1711787;82;21010;-77
2022/11/18 00:09:50;;;;;;;37.30;19.32;;;;;;;1.45;100.00;96644.16;1711727;83;20995;-76
2022/11/18 00:15:03;;;;;;;37.38;20.82;;;;;;;1.47;100.00;96638.59;1711858;83;21006;-82
2022/11/18 00:17:31;;;;;;;41.92;23.25;;;;;;;1.49;100.00;96634.59;1711815;82;21066;-77
2022/11/18 00:19:58;;;;;;;39.07;21.83;;;;;;;1.53;100.00;96629.01;1712031;83;21010;-77
2022/11/18 00:22:25;;;;;;;33.05;19.67;;;;;;;1.54;100.00;96622.64;1711850;82;21224;-82
2022/11/18 00:24:52;;;;;;;36.25;20.35;;;;;;;1.56;100.00;96622.38;1711743;83;21061;-77
2022/11/18 00:27:19;;;;;;;34.58;18.37;;;;;;;1.56;100.00;96627.19;1711854;82;21009;-77
2022/11/18 00:29:46;;;;;;;39.53;20.85;;;;;;;1.61;100.00;96629.88;1711954;83;21207;-82
2022/11/18 00:32:12;;;;;;;33.90;19.45;;;;;;;1.63;100.00;96631.78;1711743;82;21034;-78
2022/11/18 00:34:41;;;;;;;36.53;19.82;;;;;;;1.65;100.00;96634.99;1711997;83;21030;-77
2022/11/18 00:37:08;;;;;;;32.88;19.57;;;;;;;1.63;100.00;96626.97;1711890;82;21077;-77
2022/11/18 00:39:35;;;;;;;33.20;19.75;;;;;;;1.61;100.00;96634.41;1711634;83;21741;-82
2022/11/18 00:44:47;;;;;;;31.37;17.48;;;;;;;1.63;100.00;96628.30;1738252;82;21272;-77
2022/11/18 00:47:14;;;;;;;28.98;18.55;;;;;;;1.66;100.00;96629.12;1738231;81;21008;-82
2022/11/18 00:49:41;;;;;;;25.90;15.45;;;;;;;1.68;100.00;96629.12;1738288;82;21596;-77
2022/11/18 00:52:07;;;;;;;26.80;15.18;;;;;;;1.67;100.00;96626.19;1738273;81;21090;-77
2022/11/18 00:54:34;;;;;;;30.75;15.30;;;;;;;1.68;100.00;96629.66;1736273;82;21031;-78
2022/11/18 00:57:02;;;;;;;25.25;14.63;;;;;;;1.71;100.00;96630.50;1713416;83;21033;-77
2022/11/18 00:59:30;;;;;;;22.82;14.70;;;;;;;1.74;100.00;96630.52;1713219;83;20958;-81
2022/11/18 01:01:56;;;;;;;28.73;16.20;;;;;;;1.74;100.00;96623.84;1713027;83;20962;-77
2022/11/18 01:04:23;;;;;;;30.20;17.05;;;;;;;1.76;100.00;96632.39;1713152;83;21529;-77
2022/11/18 01:06:50;;;;;;;25.60;17.05;;;;;;;1.80;100.00;96632.16;1713263;83;20993;-81
2022/11/18 01:09:17;;;;;;;32.65;18.02;;;;;;;1.82;100.00;96630.03;1702788;83;20993;-77
2022/11/18 01:14:29;;;;;;;27.58;16.90;;;;;;;1.67;100.00;96630.19;1713095;83;21033;-78
2022/11/18 01:16:56;;;;;;;29.57;16.90;;;;;;;1.60;100.00;96632.80;1713125;82;21513;-77
2022/11/18 01:19:23;;;;;;;27.82;18.27;;;;;;;1.61;100.00;96629.06;1713158;83;21072;-82
2022/11/18 01:21:50;;;;;;;27.10;17.55;;;;;;;1.59;100.00;96637.34;1713098;83;21005;-82
2022/11/18 01:24:17;;;;;;;27.30;15.43;;;;;;;1.60;100.00;96637.61;1713164;83;21426;-82
2022/11/18 01:26:44;;;;;;;27.07;15.45;;;;;;;1.61;100.00;96637.08;1713233;83;21068;-77
2022/11/18 01:29:11;;;;;;;32.20;16.35;;;;;;;1.61;100.00;96639.75;1713297;83;21037;-82
2022/11/18 01:31:38;;;;;;;25.70;14.25;;;;;;;1.60;100.00;96636.81;1713199;83;21004;-82
2022/11/18 01:34:05;;;;;;;28.62;15.83;;;;;;;1.59;100.00;96629.33;1713134;82;21069;-82
2022/11/18 01:36:32;;;;;;;39.73;22.30;;;;;;;1.57;100.00;96629.32;1713102;83;21021;-78
2022/11/18 01:38:59;;;;;;;31.95;18.25;;;;;;;1.57;100.00;96633.33;1713290;83;21520;-81
2022/11/18 01:41:26;;;;;;;33.63;17.42;;;;;;;1.57;100.00;96630.66;1710363;83;21010;-82
2022/11/18 01:43:59;;;;;;;30.82;18.75;;;;;;;1.55;100.00;96623.44;1698354;84;21033;-77
2022/11/18 01:46:32;;;;;;;31.62;16.55;;;;;;;1.52;100.00;96621.27;1698197;83;21001;-77
2022/11/18 01:49:05;;;;;;;28.38;15.08;;;;;;;1.50;100.00;96623.39;1698429;83;21513;-82
2022/11/18 01:51:48;;;;;;;29.42;16.05;;;;;;;1.38;100.00;96614.23;1698314;84;21521;-81
2022/11/18 01:54:19;;;;;;;26.07;14.45;;;;;;;1.36;100.00;96613.66;1698284;84;21007;-82
2022/11/18 01:56:50;;;;;;;28.87;16.37;;;;;;;1.38;100.00;96608.89;1713052;83;21709;-82
2022/11/18 01:59:21;;;;;;;28.10;15.53;;;;;;;1.41;100.00;96611.84;1713033;83;20993;-76
2022/11/18 02:01:48;;;;;;;26.35;15.45;;;;;;;1.37;100.00;96604.63;1713233;83;21052;-82
2022/11/18 02:04:15;;;;;;;26.50;15.53;;;;;;;1.38;100.00;96598.22;1713261;83;21063;-77
2022/11/18 02:06:44;;;;;;;30.50;16.20;;;;;;;1.36;100.00;96592.31;1713094;83;21068;-77
2022/11/18 02:09:12;;;;;;;;;;;;;;;1.39;100.00;96596.63;1715773;83;20985;-77
2022/11/18 02:11:53;;;;;;;28.57;16.23;;;;;;;1.41;100.00;96595.02;1713230;83;20191;-78
2022/11/18 02:14:24;;;;;;;25.37;14.98;;;;;;;1.42;100.00;96592.63;1713152;82;21021;-78
2022/11/18 02:17:20;;;;;;;26.52;15.18;;;;;;;1.43;100.00;96588.89;1713317;83;21000;-82
2022/11/18 02:20:09;;;;;;;27.22;15.50;;;;;;;1.30;100.00;96582.67;1675671;85;21026;-82
2022/11/18 02:22:45;;;;;;;27.80;16.10;;;;;;;1.23;100.00;96580.75;1675587;85;21795;-77
2022/11/18 02:25:36;;;;;;;27.73;15.88;;;;;;;1.19;100.00;96577.77;1697509;83;21323;-82
2022/11/18 02:28:17;;;;;;;26.52;16.07;;;;;;;1.24;100.00;96574.34;1713122;83;21013;-78
2022/11/18 02:31:22;;;;;;;29.07;16.07;;;;;;;1.28;100.00;96577.59;1713418;82;20993;-82
2022/11/18 02:33:54;;;;;;;27.42;14.13;;;;;;;1.24;100.00;96578.34;1713336;82;21081;-77
2022/11/18 02:36:42;;;;;;;29.32;15.55;;;;;;;1.16;100.00;96584.15;1713255;83;21005;-82
2022/11/18 02:39:15;;;;;;;28.02;15.85;;;;;;;1.17;100.00;96593.76;1713305;83;21036;-82
2022/11/18 02:41:42;;;;;;;31.65;15.93;;;;;;;1.15;100.00;96592.69;1708625;82;21025;-77
2022/11/18 02:44:14;;;;;;;28.12;15.15;;;;;;;1.20;100.00;96589.23;1698292;83;21564;-81
2022/11/18 02:46:45;;;;;;;28.98;15.45;;;;;;;1.23;100.00;96592.75;1698488;84;21093;-77
2022/11/18 02:49:22;;;;;;;30.75;17.07;;;;;;;1.23;100.00;96582.08;1698290;84;21181;-77
2022/11/18 02:51:49;;;;;;;25.88;14.73;;;;;;;1.20;100.00;96579.40;1698261;84;21481;-82
2022/11/18 02:54:16;;;;;;;31.90;16.42;;;;;;;1.21;100.00;96578.87;1678420;84;21288;-82
2022/11/18 02:56:43;;;;;;;30.35;15.83;;;;;;;1.19;100.00;96584.44;1711319;83;22007;-81
2022/11/18 02:59:10;;;;;;;32.42;15.68;;;;;;;1.22;100.00;96581.80;1711695;82;21009;-82
2022/11/18 03:01:37;;;;;;;32.38;15.08;;;;;;;1.18;100.00;96572.16;1711800;83;21018;-82
2022/11/18 03:04:04;;;;;;;31.60;18.05;;;;;;;1.07;100.00;96578.47;1711739;82;21478;-77
2022/11/18 03:06:41;;;;;;;28.50;16.67;;;;;;;1.01;100.00;96577.61;1711759;83;21073;-82
2022/11/18 03:09:30;;;;;;;32.48;17.67;;;;;;;0.90;100.00;96577.78;1711840;82;21006;-82
2022/11/18 03:12:08;;;;;;;26.95;16.12;;;;;;;0.88;100.00;96589.24;1711952;83;25765;-82
2022/11/18 03:14:58;;;;;;;26.40;14.98;;;;;;;0.95;100.00;96590.65;1712009;83;21067;-82
2022/11/18 03:18:07;;;;;;;29.37;14.87;;;;;;;0.97;100.00;96592.53;1711381;82;21208;-82
2022/11/18 03:21:12;;;;;;;28.47;16.10;;;;;;;1.00;100.00;96586.68;1711935;83;21013;-82
2022/11/18 03:24:05;;;;;;;25.60;12.53;;;;;;;1.00;100.00;96588.02;1648990;85;21115;-77
2022/11/18 03:26:35;;;;;;;23.75;12.35;;;;;;;1.01;100.00;96586.95;1649339;87;21036;-82
2022/11/18 03:29:16;;;;;;;24.63;14.15;;;;;;;1.00;100.00;96584.02;1686103;83;21090;-77
2022/11/18 03:31:56;;;;;;;22.30;12.50;;;;;;;0.99;100.00;96581.07;1662748;85;21028;-77
2022/11/18 03:34:30;;;;;;;23.60;13.98;;;;;;;0.93;100.00;96575.41;1662626;86;21550;-82
2022/11/18 03:37:00;;;;;;;31.77;15.85;;;;;;;0.94;100.00;96571.71;1662628;86;21064;-81
2022/11/18 03:39:31;;;;;;;26.45;13.62;;;;;;;0.88;100.00;96560.70;1662644;86;21027;-77
2022/11/18 03:42:09;;;;;;;27.15;13.62;;;;;;;0.91;100.00;96562.86;1673063;82;21102;-82
2022/11/18 03:44:37;;;;;;;22.10;12.40;;;;;;;0.86;100.00;96552.70;1738135;82;21008;-77
2022/11/18 03:47:16;;;;;;;21.33;13.80;;;;;;;0.83;100.00;96553.45;1738389;82;21471;-77
2022/11/18 03:49:57;;;;;;;21.48;12.35;;;;;;;0.86;100.00;96549.50;1738374;82;21520;-77
2022/11/18 03:52:28;;;;;;;21.35;11.85;;;;;;;0.89;100.00;96549.52;1737974;81;21449;-82
2022/11/18 03:54:56;;;;;;;21.25;12.43;;;;;;;0.91;100.00;96551.39;1732788;82;21010;-81
2022/11/18 03:57:28;;;;;;;22.30;12.13;;;;;;;0.93;100.00;96546.59;1679574;83;21048;-82
2022/11/18 04:00:08;;;;;;;20.85;12.13;;;;;;;0.96;100.00;96546.11;1713514;82;20961;-77
2022/11/18 04:02:34;;;;;;;22.10;13.08;;;;;;;0.97;100.00;96545.85;1713331;83;20997;-77
2022/11/18 04:05:03;;;;;;;26.62;14.55;;;;;;;1.02;100.00;96539.73;1713608;82;20989;-77
2022/11/18 04:07:41;;;;;;;21.07;11.60;;;;;;;1.03;100.00;96542.70;1713353;83;21501;-77
2022/11/18 04:10:15;;;;;;;21.10;11.10;;;;;;;0.89;100.00;96537.51;1713544;83;21816;-77
2022/11/18 04:12:49;;;;;;;22.35;12.40;;;;;;;0.83;100.00;96529.45;1713101;83;21006;-82
2022/11/18 04:15:16;;;;;;;21.12;10.88;;;;;;;0.87;100.00;96532.44;1713467;83;21020;-82
2022/11/18 04:17:43;;;;;;;24.30;11.12;;;;;;;0.93;100.00;96527.92;1713136;83;21048;-77
2022/11/18 04:20:19;;;;;;;18.95;11.18;;;;;;;0.96;100.00;96530.11;1713337;83;21366;-81
2022/11/18 04:22:46;;;;;;;19.85;11.68;;;;;;;0.96;100.00;96535.44;1713099;82;21064;-77
2022/11/18 04:25:13;;;;;;;21.57;9.73;;;;;;;0.95;100.00;96529.30;1713412;83;21009;-82
2022/11/18 04:27:40;;;;;;;19.98;12.23;;;;;;;0.90;100.00;96527.11;1702810;83;21060;-81
2022/11/18 04:30:08;;;;;;;16.55;9.15;;;;;;;0.90;100.00;96529.78;1713357;83;21469;-77
2022/11/18 04:32:35;;;;;;;23.65;11.97;;;;;;;0.88;100.00;96537.23;1713237;83;21472;-82
2022/11/18 04:35:02;;;;;;;28.23;12.40;;;;;;;0.87;100.00;96530.30;1713224;83;21339;-77
2022/11/18 04:37:29;;;;;;;19.27;10.58;;;;;;;0.87;100.00;96532.44;1713075;83;21144;-81
2022/11/18 04:39:56;;;;;;;18.70;10.98;;;;;;;0.84;100.00;96525.72;1713382;83;21096;-77
2022/11/18 04:42:23;;;;;;;21.68;10.63;;;;;;;0.83;100.00;96523.31;1704380;83;21094;-82
2022/11/18 04:44:49;;;;;;;18.40;11.68;;;;;;;0.84;100.00;96523.05;1698414;84;21652;-80
2022/11/18 04:47:16;;;;;;;21.80;11.78;;;;;;;0.89;100.00;96522.84;1698212;83;21053;-82
2022/11/18 04:49:43;;;;;;;18.40;10.70;;;;;;;0.95;100.00;96531.17;1698444;83;21081;-77
2022/11/18 04:52:10;;;;;;;21.02;12.55;;;;;;;0.97;100.00;96528.52;1698320;83;21018;-81
2022/11/18 04:54:37;;;;;;;19.67;12.15;;;;;;;0.96;100.00;96528.23;1699734;83;21062;-82
2022/11/18 04:57:04;;;;;;;21.95;13.25;;;;;;;0.97;100.00;96536.52;1711646;83;22008;-77
2022/11/18 04:59:31;;;;;;;24.32;15.10;;;;;;;0.99;100.00;96530.92;1711732;83;21045;-80
2022/11/18 05:01:59;;;;;;;30.65;16.73;;;;;;;1.01;100.00;96521.59;1711615;83;21002;-77
2022/11/18 05:04:29;;;;;;;20.90;12.73;;;;;;;1.05;100.00;96530.71;1711612;82;21084;-82
2022/11/18 05:06:56;;;;;;;20.10;12.47;;;;;;;1.06;100.00;96532.31;1711701;83;21021;-77
2022/11/18 05:09:23;;;;;;;23.15;13.35;;;;;;;1.03;100.00;96538.70;1711572;82;21034;-77
2022/11/18 05:14:35;;;;;;;18.50;10.98;;;;;;;0.98;100.00;96542.13;1711640;83;21006;-82
2022/11/18 05:17:05;;;;;;;17.15;9.40;;;;;;;0.94;100.00;96538.37;1711679;83;21010;-81
2022/11/18 05:19:32;;;;;;;11.78;7.25;;;;;;;0.87;100.00;96545.77;1711827;83;21026;-79
2022/11/18 05:21:59;;;;;;;9.45;5.62;;;;;;;0.81;100.00;96540.91;1711774;83;21978;-77
2022/11/18 05:24:26;;;;;;;9.95;5.95;;;;;;;0.82;100.00;96540.37;1711595;82;21026;-77
2022/11/18 05:26:53;;;;;;;8.58;5.30;;;;;;;0.83;100.00;96540.65;1711948;83;21002;-81
2022/11/18 05:29:20;;;;;;;7.87;5.30;;;;;;;0.74;100.00;96540.30;1711648;82;21278;-82
2022/11/18 05:31:47;;;;;;;9.63;6.28;;;;;;;0.67;100.00;96541.03;1711781;83;20994;-77
2022/11/18 05:34:14;;;;;;;12.63;10.38;;;;;;;0.69;100.00;96540.81;1711614;82;21669;-82
2022/11/18 05:36:41;;;;;;;12.43;6.47;;;;;;;0.73;100.00;96546.70;1711739;83;21546;-77
2022/11/18 05:39:08;;;;;;;19.27;9.23;;;;;;;0.71;100.00;96554.16;1711646;82;21006;-77
2022/11/18 05:44:13;;;;;;;22.40;10.53;;;;;;;0.72;100.00;96558.95;1696698;83;21014;-82
2022/11/18 05:46:40;;;;;;;15.50;8.83;;;;;;;0.75;100.00;96555.77;1713226;82;21700;-82
2022/11/18 05:49:07;;;;;;;14.73;8.00;;;;;;;0.75;100.00;96561.91;1712985;83;21006;-77
2022/11/18 05:51:34;;;;;;;16.87;8.90;;;;;;;0.69;100.00;96563.47;1713258;83;21031;-82
2022/11/18 05:54:04;;;;;;;18.20;9.38;;;;;;;0.69;100.00;96568.27;1713229;82;21236;-77
2022/11/18 05:56:35;;;;;;;14.00;7.90;;;;;;;0.52;100.00;96562.23;1718619;82;21077;-77
2022/11/18 05:59:02;;;;;;;15.75;8.83;;;;;;;0.56;100.00;96565.46;1718857;83;21272;-77
2022/11/18 06:01:37;;;;;;;13.05;7.83;;;;;;;0.58;100.00;96568.40;1719901;83;21139;-77
2022/11/18 06:04:09;;;;;;;18.73;10.60;;;;;;;0.56;100.00;96569.98;1727855;83;20988;-77
2022/11/18 06:06:36;;;;;;;16.12;9.68;;;;;;;0.59;100.00;96568.14;1715770;82;21049;-77
2022/11/18 06:09:05;;;;;;;16.67;9.50;;;;;;;0.66;100.00;96571.95;1747288;80;22024;-82
2022/11/18 06:11:36;;;;;;;11.73;7.97;;;;;;;0.62;100.00;96574.33;1726252;81;21650;-82
2022/11/18 06:14:17;;;;;;;9.90;6.92;;;;;;;0.54;100.00;96569.45;1695256;82;21007;-83
2022/11/18 06:16:48;;;;;;;12.90;6.90;;;;;;;0.49;100.00;96575.52;1714635;82;21444;-77
2022/11/18 06:19:15;;;;;;;13.08;6.97;;;;;;;0.47;100.00;96578.96;1712363;80;21478;-77
2022/11/18 06:21:43;;;;;;;12.68;7.40;;;;;;;0.49;100.00;96586.17;1713276;82;21036;-77
2022/11/18 06:24:11;;;;;;;11.87;7.43;;;;;;;0.52;100.00;96589.69;1710390;82;21096;-82
2022/11/18 06:26:38;;;;;;;17.65;10.78;;;;;;;0.56;100.00;96586.79;1745136;82;21799;-77
2022/11/18 06:29:05;;;;;;;17.25;10.43;;;;;;;0.60;100.00;96582.28;1722461;80;21059;-82
2022/11/18 06:31:32;;;;;;;16.25;9.93;;;;;;;0.54;100.00;96586.77;1707082;82;21060;-82
2022/11/18 06:33:59;;;;;;;18.65;11.25;;;;;;;0.56;100.00;96589.98;1708690;82;21076;-77
2022/11/18 06:36:25;;;;;;;16.25;9.05;;;;;;;0.57;100.00;96592.92;1704337;83;21016;-77
2022/11/18 06:38:52;;;;;;;15.23;8.33;;;;;;;0.57;100.00;96591.59;1713063;83;20981;-77
2022/11/18 06:41:19;;;;;;;14.53;8.80;;;;;;;0.55;100.00;96587.05;1716730;82;21520;-77
2022/11/18 06:43:46;;;;;;;16.42;9.15;;;;;;;0.50;100.00;96597.11;1737794;81;21015;-77
2022/11/18 06:49:01;;;;;;;18.40;10.23;;;;;;;0.47;100.00;96592.28;1710878;83;21717;-77
2022/11/18 06:51:28;;;;;;;13.72;8.63;;;;;;;0.46;100.00;96601.87;1713353;82;21001;-77
2022/11/18 06:53:55;;;;;;;13.28;7.90;;;;;;;0.53;100.00;96605.95;1713106;83;20993;-82
2022/11/18 06:56:22;;;;;;;13.95;9.38;;;;;;;0.53;100.00;96605.95;1712131;83;20991;-82
2022/11/18 06:58:55;;;;;;;13.83;8.95;;;;;;;0.46;100.00;96607.20;1711805;82;21053;-82
2022/11/18 07:01:24;;;;;;;15.18;9.78;;;;;;;0.50;100.00;96604.30;1711291;83;21010;-81
2022/11/18 07:03:51;;;;;;;15.15;9.25;;;;;;;0.54;100.00;96612.90;1686685;83;21017;-77
2022/11/18 07:06:20;;;;;;;15.18;9.03;;;;;;;0.55;100.00;96625.70;1698049;82;21017;-81
2022/11/18 07:08:47;;;;;;;15.53;9.15;;;;;;;0.59;100.00;96620.12;1678691;85;21026;-82
2022/11/18 07:11:17;;;;;;;13.60;7.83;;;;;;;0.48;100.00;96616.55;1687995;83;21068;-82
2022/11/18 07:13:44;;;;;;;20.68;11.08;;;;;;;0.44;100.00;96611.98;1710995;82;21066;-82
2022/11/18 07:16:17;;;;;;;16.67;9.25;;;;;;;0.50;100.00;96617.63;1707010;82;21565;-81
2022/11/18 07:18:45;;;;;;;19.45;10.50;;;;;;;0.50;100.00;96612.30;1699142;83;21022;-77
2022/11/18 07:21:18;;;;;;;16.80;9.08;;;;;;;0.53;100.00;96605.95;1711862;82;20998;-77
2022/11/18 07:23:45;;;;;;;16.70;9.80;;;;;;;0.53;100.00;96601.95;1712549;82;21096;-77
2022/11/18 07:26:13;;;;;;;17.98;9.70;;;;;;;0.44;100.00;96598.66;1697431;83;21117;-77
2022/11/18 07:28:40;;;;;;;16.07;9.20;;;;;;;0.28;100.00;96592.34;1707816;83;20982;-82
2022/11/18 07:31:12;;;;;;;15.83;9.65;;;;;;;0.26;100.00;96593.93;1713098;83;21013;-77
2022/11/18 07:33:40;;;;;;;19.90;11.33;;;;;;;0.24;100.00;96592.02;1713053;83;21008;-82
2022/11/18 07:36:10;;;;;;;20.30;10.65;;;;;;;0.21;100.00;96587.20;1703251;82;21028;-77
2022/11/18 07:38:38;;;;;;;17.45;9.78;;;;;;;0.21;100.00;96589.86;1692327;82;21088;-77
2022/11/18 07:41:07;;;;;;;18.32;10.90;;;;;;;0.29;100.00;96599.28;1709224;83;20983;-77
2022/11/18 07:43:34;;;;;;;17.42;11.20;;;;;;;0.34;100.00;96601.18;1693077;83;21072;-82
2022/11/18 07:46:26;;;;;;;18.20;9.58;;;;;;;0.19;100.00;96594.64;1690851;83;20989;-82
2022/11/18 07:48:56;;;;;;;20.10;11.35;;;;;;;0.25;100.00;96604.28;1707547;83;21040;-82
2022/11/18 07:51:26;;;;;;;18.98;9.80;;;;;;;0.16;100.00;96604.96;1712636;83;21121;-77
2022/11/18 07:53:53;;;;;;;20.43;10.18;;;;;;;0.16;100.00;96611.63;1706338;82;21086;-77
2022/11/18 07:56:21;;;;;;;50.12;24.60;;;;;;;0.21;100.00;96607.17;1712170;82;21206;-77
2022/11/18 07:58:53;;;;;;;27.10;14.15;;;;;;;0.15;100.00;96613.48;1711294;82;21119;-77
2022/11/18 08:01:23;;;;;;;44.30;20.35;;;;;;;-0.08;100.00;96607.88;1703472;83;21466;-77
2022/11/18 08:03:49;;;;;;;42.25;22.52;;;;;;;-0.02;100.00;96602.88;1711840;83;21018;-82
2022/11/18 08:06:17;;;;;;;27.77;16.55;;;;;;;-0.01;100.00;96605.81;1711718;82;21048;-81
2022/11/18 08:08:44;;;;;;;23.73;14.58;;;;;;;-0.04;100.00;96604.99;1711828;82;21528;-82
2022/11/18 08:11:16;;;;;;;20.92;12.50;;;;;;;-0.04;100.00;96614.84;1724300;82;21017;-82
2022/11/18 08:13:43;;;;;;;17.52;10.50;;;;;;;0.03;100.00;96612.00;1708460;82;21049;-82
2022/11/18 08:16:13;;;;;;;16.23;9.98;;;;;;;-0.01;100.00;96611.67;1709013;82;21739;-77
2022/11/18 08:18:40;;;;;;;19.30;9.93;;;;;;;0.08;100.00;96612.05;1723208;80;21057;-77
2022/11/18 08:21:07;;;;;;;44.27;22.42;;;;;;;0.15;100.00;96616.15;1711995;83;21056;-77
2022/11/18 08:23:34;;;;;;;31.42;17.67;;;;;;;0.17;100.00;96609.23;1712394;82;21442;-82
2022/11/18 08:26:04;;;;;;;37.42;22.82;;;;;;;0.23;100.00;96598.93;1712070;83;20998;-82
2022/11/18 08:28:31;;;;;;;37.05;20.48;;;;;;;0.31;100.00;96613.16;1712126;83;21000;-82
2022/11/18 08:30:58;;;;;;;91.37;46.98;;;;;;;0.34;100.00;96616.64;1704942;83;21001;-81
2022/11/18 08:33:25;;;;;;;21.85;12.23;;;;;;;0.44;100.00;96620.78;1705633;83;21470;-77
2022/11/18 08:35:51;;;;;;;15.50;10.40;;;;;;;0.35;100.00;96612.95;1707357;82;21540;-77
2022/11/18 08:38:18;;;;;;;13.32;9.15;;;;;;;0.37;100.00;96624.16;1704403;83;21021;-77
2022/11/18 08:40:46;;;;;;;16.42;9.43;;;;;;;0.37;100.00;96621.49;1712147;82;21004;-82
2022/11/18 08:43:13;;;;;;;12.82;7.83;;;;;;;0.45;100.00;96629.05;1719914;81;21071;-77
2022/11/18 08:45:40;;;;;;;13.32;7.62;;;;;;;0.45;100.00;96626.91;1709384;83;21099;-77
2022/11/18 08:48:07;;;;;;;13.53;8.13;;;;;;;0.44;100.00;96623.98;1710715;83;21010;-77
2022/11/18 08:50:34;;;;;;;14.18;7.50;;;;;;;0.48;100.00;96641.06;1700202;83;21446;-82
2022/11/18 08:53:01;;;;;;;16.35;9.93;;;;;;;0.50;100.00;96646.42;1709951;83;21014;-77
2022/11/18 08:55:28;;;;;;;19.48;12.20;;;;;;;0.61;100.00;96650.03;1710240;83;20997;-82
2022/11/18 08:57:55;;;;;;;18.32;11.30;;;;;;;0.66;100.00;96647.94;1711607;83;20981;-77
2022/11/18 09:00:22;;;;;;;21.80;14.20;;;;;;;0.71;100.00;96646.14;1697557;83;22045;-77
2022/11/18 09:02:49;;;;;;;15.45;10.28;;;;;;;0.77;100.00;96634.98;1711435;82;21013;-82
2022/11/18 09:05:16;;;;;;;15.58;9.73;;;;;;;0.84;100.00;96632.93;1697649;83;22140;-82
2022/11/18 09:07:43;;;;;;;15.88;9.75;;;;;;;0.79;100.00;96646.23;1701072;83;21025;-82
2022/11/18 09:10:10;;;;;;;10.00;7.67;;;;;;;0.76;100.00;96648.84;1711069;83;21041;-77
2022/11/18 09:12:37;;;;;;;15.13;9.10;;;;;;;0.83;100.00;96661.46;1693352;83;21031;-77
2022/11/18 09:15:04;;;;;;;12.98;9.08;;;;;;;0.68;100.00;96671.14;1707030;83;21001;-82
2022/11/18 09:17:31;;;;;;;16.73;9.63;;;;;;;0.68;100.00;96669.81;1706040;82;21219;-77
2022/11/18 09:20:00;;;;;;;17.42;8.98;;;;;;;0.62;100.00;96668.17;1701729;82;21464;-76
2022/11/18 09:22:27;;;;;;;172.80;75.00;;;;;;;0.67;100.00;96667.67;1705280;82;21058;-77
2022/11/18 09:24:54;;;;;;;167.57;72.25;;;;;;;0.68;100.00;96661.81;1702338;83;21010;-77
2022/11/18 09:27:20;;;;;;;87.65;45.65;;;;;;;0.77;100.00;96667.81;1710714;83;21071;-77
2022/11/18 09:29:47;;;;;;;101.72;53.65;;;;;;;0.81;100.00;96669.45;1693816;83;21753;-77
2022/11/18 09:32:14;;;;;;;37.50;22.90;;;;;;;0.86;100.00;96676.18;1698132;83;21474;-82
2022/11/18 09:34:41;;;;;;;20.75;11.33;;;;;;;0.87;100.00;96671.65;1699539;82;21040;-77
2022/11/18 09:37:08;;;;;;;62.35;37.75;;;;;;;0.52;100.00;96673.66;1696001;83;21036;-77
2022/11/18 09:39:35;;;;;;;87.40;46.18;;;;;;;0.60;100.00;96668.92;1703665;82;21014;-76
2022/11/18 09:42:41;;;;;;;33.60;20.55;;;;;;;0.57;100.00;96670.23;1705574;82;21490;-77
2022/11/18 09:45:30;;;;;;;15.53;10.40;;;;;;;0.64;100.00;96664.72;1707683;83;21542;-77
2022/11/18 09:47:58;;;;;;;22.87;14.50;;;;;;;0.62;100.00;96666.30;1710212;83;21458;-77
2022/11/18 09:50:25;;;;;;;17.60;12.50;;;;;;;0.60;100.00;96668.42;1707500;83;21485;-81
2022/11/18 09:53:18;;;;;;;35.20;29.10;;;;;;;0.55;100.00;96671.02;1711522;82;21045;-77
2022/11/18 09:55:45;;;;;;;17.67;12.45;;;;;;;0.52;100.00;96668.33;1708738;83;21336;-81
2022/11/18 09:58:33;;;;;;;24.02;14.85;;;;;;;0.49;100.00;96668.00;1712086;83;21010;-76
2022/11/18 10:01:01;;;;;;;23.75;17.25;;;;;;;0.48;100.00;96666.39;1688115;82;24420;-77
2022/11/18 10:03:30;;;;;;;73.55;42.00;;;;;;;0.42;100.00;96670.84;1708542;83;21002;-77
2022/11/18 10:06:18;;;;;;;79.10;37.10;;;;;;;0.49;100.00;96656.00;1703315;83;21551;-82
2022/11/18 10:09:34;;;;;;;22.97;13.10;;;;;;;0.54;100.00;96648.08;1693781;83;22437;-77
2022/11/18 10:12:23;;;;;;;15.60;8.40;;;;;;;0.60;100.00;96652.42;1709785;83;21450;-81
2022/11/18 10:15:16;;;;;;;24.37;13.48;;;;;;;0.75;100.00;96659.23;1699359;83;21453;-77
2022/11/18 10:18:09;;;;;;;18.27;12.40;;;;;;;0.65;100.00;96654.33;1705013;82;21544;-77
2022/11/18 10:20:47;;;;;;;31.37;21.68;;;;;;;0.64;100.00;96656.19;1696425;83;21036;-81
2022/11/18 10:23:22;;;;;;;16.62;11.00;;;;;;;0.69;100.00;96664.79;1704731;82;21027;-77
2022/11/18 10:25:48;;;;;;;36.55;20.45;;;;;;;0.66;100.00;96653.27;1707062;83;21061;-81
2022/11/18 10:28:28;;;;;;;27.80;17.57;;;;;;;0.69;100.00;96644.26;1689983;82;21013;-77
2022/11/18 10:31:04;;;;;;;26.40;18.02;;;;;;;0.76;100.00;96644.05;1699606;83;21080;-82
2022/11/18 10:33:31;;;;;;;40.30;27.10;;;;;;;0.52;100.00;96647.00;1676465;83;21501;-77
2022/11/18 10:36:29;;;;;;;15.93;9.53;;;;;;;0.57;100.00;96654.23;1710070;82;21623;-77
2022/11/18 10:39:13;;;;;;;24.07;11.53;;;;;;;0.54;100.00;96649.41;1707947;82;21006;-82
2022/11/18 10:41:46;;;;;;;16.23;11.15;;;;;;;0.64;100.00;96658.05;1710089;82;21023;-81
2022/11/18 10:44:40;;;;;;;20.27;12.35;;;;;;;0.76;100.00;96656.04;1712212;81;21049;-82
2022/11/18 10:47:29;;;;;;;16.82;12.70;;;;;;;0.75;100.00;96659.23;1698678;82;21027;-77
2022/11/18 10:50:01;;;;;;;34.48;22.90;;;;;;;0.93;100.00;96662.63;1710476;82;21456;-77
2022/11/18 10:52:28;;;;;;;28.15;19.07;;;;;;;1.04;100.00;96663.03;1709399;83;21120;-82
2022/11/18 10:55:20;;;;;;;23.27;14.87;;;;;;;0.99;100.00;96660.30;1701661;83;21043;-82
2022/11/18 10:57:48;;;;;;;16.40;10.15;;;;;;;0.94;100.00;96664.23;1710501;83;21092;-82
2022/11/18 11:00:41;;;;;;;40.00;23.35;;;;;;;0.71;100.00;96666.14;1697767;82;21487;-77
2022/11/18 11:03:30;;;;;;;22.55;14.28;;;;;;;0.64;100.00;96664.19;1703912;83;21580;-82
2022/11/18 11:06:22;;;;;;;26.70;13.50;;;;;;;0.49;100.00;96672.80;1702612;83;21005;-82
2022/11/18 11:09:00;;;;;;;22.15;11.05;;;;;;;0.26;100.00;96669.86;1704753;82;21460;-77
2022/11/18 11:11:57;;;;;;;25.32;15.23;;;;;;;0.19;100.00;96667.91;1708106;83;21016;-77
2022/11/18 11:14:52;;;;;;;18.87;12.37;;;;;;;0.20;100.00;96675.37;1672837;83;21459;-82
2022/11/18 11:18:40;;;;;;;21.10;14.15;;;;;;;0.20;100.00;96672.70;1702651;82;21138;-76
2022/11/18 11:20:22;;;;;;;37.67;27.07;;;;;;;0.31;100.00;96674.97;1697471;83;21048;-77
2022/11/18 11:22:49;;;;;;;33.08;23.70;;;;;;;0.27;100.00;96675.47;1711767;82;20970;-77
2022/11/18 11:25:32;;;;;;;35.68;29.92;;;;;;;0.33;100.00;96674.98;1709523;82;20993;-81
2022/11/18 11:28:20;;;;;;;28.92;17.20;;;;;;;0.40;100.00;96670.29;1694398;82;21501;-82
2022/11/18 11:30:58;;;;;;;25.77;13.08;;;;;;;0.46;100.00;96671.97;1685142;83;21793;-77
2022/11/18 11:33:51;;;;;;;15.13;10.80;;;;;;;0.56;100.00;96659.30;1709665;82;21039;-81
2022/11/18 11:36:24;;;;;;;31.82;19.73;;;;;;;0.51;100.00;96657.39;1707426;83;21083;-77
2022/11/18 11:39:03;;;;;;;29.55;18.57;;;;;;;0.52;100.00;96663.52;1689116;83;21011;-77
2022/11/18 11:41:47;;;;;;;;;;;;;;;0.52;100.00;96667.52;1715313;82;21034;-77
2022/11/18 11:44:46;;;;;;;30.00;18.35;;;;;;;0.70;100.00;96647.20;1711471;82;21027;-82
2022/11/18 11:50:29;;;;;;;28.77;15.50;;;;;;;0.70;100.00;96648.53;1648476;86;21043;-82
2022/11/18 11:53:16;;;;;;;21.73;15.60;;;;;;;0.89;100.00;96662.33;1696912;82;21044;-77
2022/11/18 11:55:49;;;;;;;63.50;41.42;;;;;;;0.97;100.00;96661.08;1672945;83;21445;-82
2022/11/18 11:58:27;;;;;;;17.25;12.20;;;;;;;1.04;100.00;96666.50;1700497;82;21025;-82
2022/11/18 12:01:05;;;;;;;14.63;9.20;;;;;;;1.05;100.00;96661.97;1702392;83;21006;-82